METAR Data
IDs: Format: Raw Decoded Include TAF

Data at: 0747 UTC 21 Oct 2018

METAR for:KMGY (Dayton/Wright Brothe, OH, US)
Text:KMGY 210653Z AUTO 30005KT 10SM CLR 02/M02 A3024 RMK AO2 SLP245 T00171022
Temperature: 1.7°C ( 35°F)
Dewpoint: -2.2°C ( 28°F) [RH = 75%]
Pressure (altimeter):30.24 inches Hg (1024.1 mb) [Sea level pressure: 1024.5 mb]
Winds:from the WNW (300 degrees) at 6 MPH (5 knots; 2.6 m/s)
Visibility:10 or more sm (16+ km)
Ceiling:at least 12,000 feet AGL
Clouds:sky clear below 12,000 feet AGL
QC Flag:automated observation with no human augmentation